^^
MeteoGriva-Weather Station Historical Data
Daily Summary for October 25, 2020 Units:  Metric    English   Both
Daily Weekly Monthly Yearly Custom
  High: Low: Average:
Temperature: 19.5 °C 11.4 °C 14.8 °C
Dew Point: 16 °C 10.3 °C 12.6 °C
Humidity: 99% 70.6% 87%
Wind Speed: 10.2km/h 0km/h 0.3km/h
Wind Gust: 24.1km/h - -
Wind- - South
Pressure: 1011.9 hPa 1008.5 hPa -
Precipitation: 3.0 mm    
Historical Graphs
 
 
Tabular Data for October 25, 2020
Time Temperature Dew Point Pressure Wind Wind Speed Wind Gust Humidity Rainfall Rate (Hourly) solar
00:04 16.4 °C 12 °C 1011.5 hPa Calm     75.4% 0.0 mm 0 W/m2
00:09 15.7 °C 11.3 °C 1011.9 hPa Calm     75.6% 0.0 mm 0 W/m2
00:14 15.7 °C 11.4 °C 1011.9 hPa Calm     75.4% 0.0 mm 0 W/m2
00:19 15.7 °C 11.5 °C 1011.9 hPa Calm     76.1% 0.0 mm 0 W/m2
00:24 15.8 °C 11.2 °C 1011.9 hPa Calm     74.1% 0.0 mm 0 W/m2
00:29 16.2 °C 11.4 °C 1011.5 hPa Calm     73.1% 0.0 mm 0 W/m2
00:34 16.1 °C 11.6 °C 1011.5 hPa Calm     74.3% 0.0 mm 0 W/m2
00:39 16.1 °C 11.4 °C 1011.5 hPa Calm     73.5% 0.0 mm 0 W/m2
00:44 16.1 °C 11.3 °C 1011.5 hPa Calm     73.3% 0.0 mm 0 W/m2
00:49 15.9 °C 11.1 °C 1011.5 hPa Calm     73% 0.0 mm 0 W/m2
00:54 15.9 °C 11.2 °C 1011.5 hPa Calm     73.8% 0.0 mm 0 W/m2
00:59 15.9 °C 11.1 °C 1011.5 hPa Calm     73% 0.0 mm 0 W/m2
01:04 15.9 °C 11.1 °C 1011.2 hPa Calm     73.1% 0.0 mm 0 W/m2
01:09 15.9 °C 11.2 °C 1011.2 hPa Calm     73.3% 0.0 mm 0 W/m2
01:14 15.8 °C 11.2 °C 1011.2 hPa Calm     74% 0.0 mm 0 W/m2
01:19 15.8 °C 11 °C 1011.2 hPa Calm     73% 0.0 mm 0 W/m2
01:24 15.8 °C 11 °C 1011.2 hPa Calm     72.8% 0.0 mm 0 W/m2
01:29 15.9 °C 11.1 °C 1011.2 hPa Calm     73% 0.0 mm 0 W/m2
01:34 15.9 °C 11.1 °C 1010.8 hPa Calm     73% 0.0 mm 0 W/m2
01:39 15.9 °C 11.1 °C 1010.8 hPa Calm     73% 0.0 mm 0 W/m2
01:44 15.9 °C 11.2 °C 1010.8 hPa Calm     73.3% 0.0 mm 0 W/m2
01:49 16.1 °C 11.1 °C 1010.8 hPa Calm     72.1% 0.0 mm 0 W/m2
01:54 16.1 °C 11.1 °C 1010.8 hPa Calm     72% 0.0 mm 0 W/m2
01:59 16.1 °C 11.1 °C 1010.8 hPa Calm     72.1% 0.0 mm 0 W/m2
02:04 16.1 °C 11.1 °C 1010.8 hPa Calm     72% 0.0 mm 0 W/m2
02:09 16 °C 11.1 °C 1010.8 hPa Calm     72.2% 0.0 mm 0 W/m2
02:14 16 °C 11 °C 1010.8 hPa Calm     72.2% 0.0 mm 0 W/m2
02:19 16 °C 11 °C 1010.8 hPa Calm     71.8% 0.0 mm 0 W/m2
02:24 16.1 °C 10.9 °C 1010.8 hPa Calm     71.4% 0.0 mm 0 W/m2
02:29 16.5 °C 11.1 °C 1010.8 hPa Calm     70.6% 0.0 mm 0 W/m2
02:34 16.4 °C 11.2 °C 1010.5 hPa Calm     71.7% 0.0 mm 0 W/m2
02:39 16.4 °C 11.1 °C 1010.5 hPa Calm     71.1% 0.0 mm 0 W/m2
02:44 16.3 °C 11.2 °C 1010.8 hPa Calm     72% 0.0 mm 0 W/m2
02:49 16.1 °C 11.1 °C 1010.8 hPa Calm     72.2% 0.0 mm 0 W/m2
02:54 16 °C 11.1 °C 1010.8 hPa Calm     72.3% 0.0 mm 0 W/m2
02:59 16 °C 11.1 °C 1010.8 hPa Calm     72.5% 0.0 mm 0 W/m2
03:04 16 °C 11.2 °C 1010.8 hPa Calm     72.9% 0.0 mm 0 W/m2
03:09 16 °C 11.2 °C 1010.8 hPa Calm     73% 0.0 mm 0 W/m2
03:14 15.9 °C 11.2 °C 1010.8 hPa Calm     73.3% 0.0 mm 0 W/m2
03:19 15.9 °C 11.1 °C 1010.8 hPa Calm     73.2% 0.0 mm 0 W/m2
03:24 15.8 °C 11.3 °C 1010.5 hPa Calm     74% 0.0 mm 0 W/m2
03:29 15.8 °C 11.2 °C 1010.5 hPa Calm     74% 0.0 mm 0 W/m2
03:34 15.8 °C 11.4 °C 1010.5 hPa Calm     74.9% 0.0 mm 0 W/m2
03:39 15.8 °C 11.3 °C 1010.5 hPa Calm     74.6% 0.0 mm 0 W/m2
03:44 15.7 °C 11.1 °C 1010.2 hPa Calm     74% 0.0 mm 0 W/m2
03:49 15.7 °C 11.3 °C 1010.2 hPa Calm     74.7% 0.0 mm 0 W/m2
03:54 15.8 °C 11.2 °C 1010.2 hPa Calm     74% 0.0 mm 0 W/m2
03:59 15.8 °C 11.1 °C 1010.2 hPa Calm     73.7% 0.0 mm 0 W/m2
03:04 15.8 °C 11.3 °C 1010.2 hPa Calm     74.8% 0.0 mm 0 W/m2
03:09 15.8 °C 11.2 °C 1010.2 hPa Calm     74.2% 0.0 mm 0 W/m2
03:14 15.8 °C 11.3 °C 1009.8 hPa Calm     74.7% 0.0 mm 0 W/m2
03:19 15.7 °C 11.5 °C 1009.8 hPa Calm     75.8% 0.0 mm 0 W/m2
03:24 15.7 °C 11.5 °C 1009.8 hPa Calm     75.9% 0.0 mm 0 W/m2
03:29 15.4 °C 11.3 °C 1009.8 hPa Calm     76.3% 0.0 mm 0 W/m2
03:34 15.3 °C 11.2 °C 1009.8 hPa Calm     76% 0.0 mm 0 W/m2
03:39 15.4 °C 11.2 °C 1009.8 hPa Calm     76% 0.0 mm 0 W/m2
03:44 15.4 °C 11 °C 1009.8 hPa Calm     75.2% 0.0 mm 0 W/m2
03:49 15.6 °C 11.4 °C 1009.8 hPa Calm     76% 0.0 mm 0 W/m2
03:54 15.7 °C 11.7 °C 1009.5 hPa Calm     76.8% 0.0 mm 0 W/m2
03:59 15.7 °C 11.9 °C 1009.5 hPa Calm     78% 0.0 mm 0 W/m2
04:04 15.5 °C 11.7 °C 1009.8 hPa Calm     78% 0.0 mm 0 W/m2
04:09 15.2 °C 11.6 °C 1009.5 hPa Calm     79% 0.0 mm 0 W/m2
04:14 15 °C 11.4 °C 1009.5 hPa Calm     79% 0.0 mm 0 W/m2
04:19 15 °C 11.3 °C 1009.5 hPa Calm     78.6% 0.0 mm 0 W/m2
04:24 15 °C 11.3 °C 1009.5 hPa Calm     78.3% 0.0 mm 0 W/m2
04:29 14.8 °C 11.3 °C 1009.5 hPa Calm     79.7% 0.0 mm 0 W/m2
04:34 14.6 °C 11.3 °C 1009.5 hPa Calm     80.6% 0.0 mm 0 W/m2
04:39 14.6 °C 11.4 °C 1009.5 hPa Calm     80.9% 0.0 mm 0 W/m2
04:44 14.5 °C 11.1 °C 1009.5 hPa Calm     80% 0.0 mm 0 W/m2
04:49 14.5 °C 11.2 °C 1009.5 hPa Calm     80.3% 0.0 mm 0 W/m2
04:54 14.5 °C 11.1 °C 1009.5 hPa Calm     80.2% 0.0 mm 0 W/m2
04:59 14.5 °C 11.1 °C 1009.5 hPa Calm     79.9% 0.0 mm 0 W/m2
05:04 14.5 °C 11 °C 1009.5 hPa Calm     79.6% 0.0 mm 0 W/m2
05:09 14.7 °C 11 °C 1009.5 hPa Calm     78.7% 0.0 mm 0 W/m2
05:14 14.8 °C 11.2 °C 1009.5 hPa Calm     79% 0.0 mm 0 W/m2
05:19 14.7 °C 11.2 °C 1009.5 hPa Calm     79.7% 0.0 mm 0 W/m2
05:24 14.7 °C 11.3 °C 1009.1 hPa Calm     80% 0.0 mm 0 W/m2
05:29 14.7 °C 11.2 °C 1009.5 hPa Calm     79.4% 0.0 mm 0 W/m2
05:34 14.8 °C 11.2 °C 1009.5 hPa Calm     78.8% 0.0 mm 0 W/m2
05:39 14.8 °C 11 °C 1009.5 hPa Calm     78.1% 0.0 mm 0 W/m2
05:44 14.9 °C 11.1 °C 1009.5 hPa Calm     78% 0.0 mm 0 W/m2
05:49 15 °C 11.2 °C 1009.5 hPa Calm     78.1% 0.0 mm 0 W/m2
05:54 15 °C 11.4 °C 1009.5 hPa Calm     79.2% 0.0 mm 0 W/m2
05:59 15 °C 11.5 °C 1009.5 hPa Calm     79.6% 0.0 mm 0 W/m2
06:04 14.9 °C 11.5 °C 1009.1 hPa Calm     80% 0.0 mm 0 W/m2
06:09 14.8 °C 11.4 °C 1009.5 hPa Calm     80% 0.0 mm 0 W/m2
06:14 14.7 °C 11.2 °C 1009.1 hPa Calm     79.6% 0.0 mm 0 W/m2
06:19 14.7 °C 11.1 °C 1009.1 hPa Calm     79% 0.0 mm 0 W/m2
06:24 14.8 °C 11.1 °C 1009.1 hPa Calm     78.6% 0.0 mm 0 W/m2
06:29 14.9 °C 11.3 °C 1009.5 hPa Calm     79% 0.0 mm 0 W/m2
06:34 15 °C 11.3 °C 1009.5 hPa Calm     78.2% 0.0 mm 0 W/m2
06:39 15.1 °C 11.3 °C 1009.1 hPa Calm     77.9% 0.0 mm 0 W/m2
06:44 15.1 °C 11.1 °C 1009.1 hPa Calm     77.1% 0.0 mm 0 W/m2
06:49 15.3 °C 11.3 °C 1009.1 hPa Calm     77% 0.0 mm 0 W/m2
06:54 15.5 °C 11.5 °C 1009.1 hPa Calm     77% 0.0 mm 0 W/m2
06:59 15.4 °C 11.6 °C 1009.1 hPa Calm     78% 0.0 mm 0 W/m2
07:04 15.4 °C 11.4 °C 1009.1 hPa Calm     77% 0.0 mm 0 W/m2
07:09 15.6 °C 11.5 °C 1009.1 hPa Calm     76.7% 0.0 mm 0 W/m2
07:14 15.7 °C 11.7 °C 1009.1 hPa Calm     77% 0.0 mm 2 W/m2
07:19 15.7 °C 11.8 °C 1009.1 hPa Calm     77.7% 0.0 mm 5 W/m2
07:24 15.7 °C 11.8 °C 1009.1 hPa Calm     77.3% 0.0 mm 7 W/m2
07:29 15.8 °C 11.8 °C 1009.1 hPa Calm     77.3% 0.0 mm 10 W/m2
07:34 15.9 °C 11.9 °C 1009.1 hPa Calm     76.8% 0.0 mm 19 W/m2
07:39 15.9 °C 11.4 °C 1009.5 hPa Calm     74.2% 0.0 mm 24 W/m2
07:44 16 °C 11.3 °C 1009.1 hPa Calm     73.4% 0.0 mm 30 W/m2
07:49 16.4 °C 11.4 °C 1009.1 hPa Calm     72.4% 0.0 mm 36 W/m2
07:54 16.8 °C 12 °C 1009.5 hPa Calm     73.2% 0.0 mm 47 W/m2
07:59 16.8 °C 12.6 °C 1009.8 hPa Calm   4 km/h 76.3% 0.0 mm 51 W/m2
08:04 16.7 °C 13.4 °C 1010.2 hPa Calm   4 km/h 81.4% 0.0 mm 48 W/m2
08:09 16.2 °C 13 °C 1009.8 hPa Calm     81.4% 0.0 mm 40 W/m2
08:14 15.6 °C 11.9 °C 1009.8 hPa Calm     78.3% 0.0 mm 44 W/m2
08:19 15.6 °C 12.6 °C 1009.8 hPa NNW 0.9 km/h 7.9 km/h 82.1% 0.0 mm 51 W/m2
08:24 15.5 °C 12.6 °C 1009.8 hPa Calm   4 km/h 83.1% 0.0 mm 56 W/m2
08:29 15.4 °C 13 °C 1010.2 hPa Calm     85.4% 0.0 mm 55 W/m2
08:34 15.1 °C 12.8 °C 1010.2 hPa Calm     86% 0.0 mm 49 W/m2
08:39 15 °C 12.9 °C 1010.2 hPa Calm     87% 0.0 mm 45 W/m2
08:44 14.9 °C 12.8 °C 1010.2 hPa Calm     87% 0.0 mm 52 W/m2
08:49 14.9 °C 12.8 °C 1010.5 hPa Calm     87.1% 0.0 mm 54 W/m2
08:54 15 °C 13 °C 1010.5 hPa Calm     88.3% 0.0 mm 60 W/m2
08:59 14.9 °C 13.2 °C 1010.8 hPa Calm     89.7% 0.0 mm 58 W/m2
09:04 14.8 °C 13.2 °C 1010.8 hPa Calm     90% 0.0 mm 57 W/m2
09:09 14.7 °C 13.1 °C 1010.8 hPa Calm     90% 0.0 mm 54 W/m2
09:14 14.2 °C 12.7 °C 1010.8 hPa Calm     90.3% 0.0 mm 55 W/m2
09:19 14.2 °C 12.7 °C 1010.8 hPa Calm   4 km/h 90.7% 0.0 mm 55 W/m2
09:24 14.2 °C 13 °C 1010.8 hPa Calm     92.6% 0.0 mm 52 W/m2
09:29 14.3 °C 12.9 °C 1010.5 hPa Calm     91.7% 0.0 mm 47 W/m2
09:34 14.4 °C 12.9 °C 1010.5 hPa Calm     91.2% 0.0 mm 36 W/m2
09:39 14.3 °C 13.2 °C 1010.8 hPa Calm     93.3% 0.0 mm 37 W/m2
09:44 14.3 °C 13.9 °C 1011.2 hPa West 0.1 km/h 4 km/h 97.3% 0.0 mm 33 W/m2
09:49 14.1 °C 13.9 °C 1011.2 hPa NNW 0.1 km/h 7.9 km/h 98.9% 1.8 mm 38 W/m2
09:54 13.4 °C 13.2 °C 1011.2 hPa NNW 3.8 km/h 7.9 km/h 99% 0.0 mm 46 W/m2
09:59 13.4 °C 13.2 °C 1010.8 hPa North 0.6 km/h 7.9 km/h 99% 0.0 mm 52 W/m2
10:04 13.4 °C 13.2 °C 1010.8 hPa Calm     99% 0.0 mm 50 W/m2
10:09 13.3 °C 13.1 °C 1011.2 hPa Calm     99% 0.0 mm 35 W/m2
10:14 13.4 °C 13.2 °C 1010.8 hPa Calm     99% 0.0 mm 35 W/m2
10:19 13.4 °C 13.2 °C 1010.8 hPa Calm     99% 0.0 mm 38 W/m2
10:24 13.4 °C 13.2 °C 1010.5 hPa Calm     99% 0.0 mm 51 W/m2
10:29 13.4 °C 13.2 °C 1010.8 hPa Calm     99% 0.0 mm 55 W/m2
10:34 13.7 °C 13.5 °C 1010.8 hPa Calm     99% 0.0 mm 57 W/m2
10:39 13.7 °C 13.5 °C 1010.8 hPa Calm     98.9% 0.0 mm 55 W/m2
10:44 13.7 °C 13.5 °C 1010.8 hPa Calm     99% 0.0 mm 62 W/m2
10:49 13.7 °C 13.5 °C 1011.2 hPa Calm     99% 0.0 mm 63 W/m2
10:54 13.8 °C 13.6 °C 1011.2 hPa Calm     99% 0.0 mm 56 W/m2
10:59 13.8 °C 13.6 °C 1011.2 hPa Calm     99% 0.0 mm 42 W/m2
11:04 13.7 °C 13.5 °C 1011.5 hPa Calm     99% 0.0 mm 54 W/m2
11:09 13.7 °C 13.5 °C 1011.2 hPa Calm     99% 0.0 mm 61 W/m2
11:14 13.9 °C 13.7 °C 1011.2 hPa Calm     99% 0.0 mm 50 W/m2
11:19 13.9 °C 13.7 °C 1010.8 hPa Calm     99% 0.0 mm 58 W/m2
11:24 13.9 °C 13.7 °C 1010.8 hPa Calm     99% 0.0 mm 76 W/m2
11:29 13.9 °C 13.7 °C 1010.8 hPa Calm     98.2% 0.0 mm 79 W/m2
11:34 14.4 °C 13.9 °C 1010.8 hPa Calm     96.7% 0.0 mm 73 W/m2
11:39 14.5 °C 13.7 °C 1011.2 hPa Calm     95.1% 0.0 mm 70 W/m2
11:44 14.5 °C 13.7 °C 1011.2 hPa Calm     94.8% 0.0 mm 87 W/m2
11:49 14.6 °C 13.8 °C 1010.8 hPa Calm     94.9% 0.0 mm 124 W/m2
11:54 15.2 °C 14.4 °C 1010.5 hPa Calm     95.4% 0.0 mm 191 W/m2
11:59 15.2 °C 14.9 °C 1010.2 hPa Calm     98.4% 0.0 mm 375 W/m2
12:04 15.3 °C 14.3 °C 1010.2 hPa NE 0.3 km/h 7.9 km/h 93.4% 0.0 mm 208 W/m2
12:09 15.4 °C 14 °C 1010.2 hPa NNW 1.7 km/h 7.9 km/h 91.3% 0.0 mm 179 W/m2
12:14 16.3 °C 14.6 °C 1010.2 hPa Calm   7.9 km/h 89.5% 0.0 mm 179 W/m2
12:19 16.5 °C 14.5 °C 1010.5 hPa NE 0.4 km/h 7.9 km/h 87.8% 0.0 mm 312 W/m2
12:24 16.6 °C 14.4 °C 1010.2 hPa North 2.8 km/h 12.2 km/h 87.3% 0.0 mm 393 W/m2
12:29 16.7 °C 14.4 °C 1010.2 hPa NNE 1.3 km/h 7.9 km/h 86.7% 0.0 mm 222 W/m2
12:34 17 °C 14.7 °C 1009.8 hPa North 1.1 km/h 7.9 km/h 86.6% 0.0 mm 159 W/m2
12:39 17 °C 14.5 °C 1009.8 hPa Calm   7.9 km/h 85.2% 0.0 mm 396 W/m2
12:44 17.1 °C 15.1 °C 1009.8 hPa NE 3.3 km/h 12.2 km/h 88.1% 0.0 mm 404 W/m2
12:49 17.1 °C 16 °C 1009.8 hPa NNE 0.7 km/h 12.2 km/h 93.1% 0.0 mm 394 W/m2
12:54 16.8 °C 15.2 °C 1009.8 hPa NE 1.4 km/h 7.9 km/h 90.3% 0.0 mm 407 W/m2
12:59 16.7 °C 14.2 °C 1009.8 hPa East 1.4 km/h 7.9 km/h 85.1% 0.0 mm 427 W/m2
13:04 16.8 °C 14.3 °C 1009.5 hPa East 0.7 km/h 7.9 km/h 84.9% 0.0 mm 421 W/m2
13:09 17 °C 14.3 °C 1009.5 hPa NNE 0.7 km/h 7.9 km/h 84.1% 0.0 mm 422 W/m2
13:14 17.9 °C 14.6 °C 1009.8 hPa Calm   4 km/h 81% 0.0 mm 401 W/m2
13:19 18.2 °C 14.3 °C 1009.5 hPa East 0.1 km/h 4 km/h 78.1% 0.0 mm 401 W/m2
13:24 18.3 °C 14.3 °C 1009.5 hPa Calm   4 km/h 77.9% 0.0 mm 429 W/m2
13:29 18.3 °C 14.3 °C 1009.5 hPa Calm   7.9 km/h 77.6% 0.0 mm 463 W/m2
13:34 18.7 °C 14.8 °C 1009.5 hPa ENE 0.1 km/h 12.2 km/h 77.8% 0.0 mm 433 W/m2
13:39 18.8 °C 15 °C 1009.1 hPa NW 0.1 km/h 4 km/h 78.3% 0.0 mm 428 W/m2
13:44 18.8 °C 14.9 °C 1009.5 hPa SE 2.1 km/h 7.9 km/h 77.7% 0.0 mm 438 W/m2
13:49 18.9 °C 14.9 °C 1009.5 hPa SE 0.6 km/h 7.9 km/h 77.6% 0.0 mm 455 W/m2
13:54 19.1 °C 14.9 °C 1009.1 hPa SE 1 km/h 7.9 km/h 76.3% 0.0 mm 444 W/m2
13:59 19.5 °C 15.2 °C 1009.1 hPa SSE 1 km/h 7.9 km/h 76.3% 0.0 mm 306 W/m2
14:04 19.4 °C 15.4 °C 1009.1 hPa SSE 0.6 km/h 7.9 km/h 77.9% 0.0 mm 116 W/m2
14:09 19.2 °C 15.9 °C 1009.1 hPa ENE 1.1 km/h 7.9 km/h 81.4% 0.0 mm 105 W/m2
14:14 17.9 °C 15.3 °C 1009.1 hPa Calm   7.9 km/h 84.6% 0.0 mm 133 W/m2
14:19 17.4 °C 15.1 °C 1009.1 hPa Calm   4 km/h 86.6% 0.0 mm 101 W/m2
14:24 17.3 °C 15 °C 1009.1 hPa Calm   4 km/h 86.7% 0.0 mm 117 W/m2
14:29 17.3 °C 14.9 °C 1009.1 hPa Calm   7.9 km/h 86.2% 0.0 mm 161 W/m2
14:34 17 °C 14.8 °C 1009.1 hPa Calm     87% 0.0 mm 338 W/m2
14:39 16.9 °C 14.5 °C 1009.1 hPa Calm     86% 0.0 mm 341 W/m2
14:44 17 °C 14.5 °C 1009.1 hPa Calm     85.8% 0.0 mm 256 W/m2
14:49 17 °C 14.6 °C 1008.8 hPa Calm     85.6% 0.0 mm 396 W/m2
14:54 17.7 °C 14.8 °C 1008.8 hPa Calm     83.3% 0.0 mm 391 W/m2
14:59 18.1 °C 15 °C 1008.8 hPa ENE 0.6 km/h 7.9 km/h 82.1% 0.0 mm 405 W/m2
15:04 18.2 °C 14.6 °C 1008.8 hPa Calm     79.7% 0.0 mm 387 W/m2
15:09 18.3 °C 14.8 °C 1008.8 hPa NNW 0.8 km/h 12.2 km/h 80.1% 0.0 mm 373 W/m2
15:14 18.3 °C 15.1 °C 1008.8 hPa Calm   7.9 km/h 81.4% 0.0 mm 338 W/m2
15:19 18.2 °C 15.1 °C 1008.5 hPa NNE 0.4 km/h 4 km/h 81.8% 0.0 mm 315 W/m2
15:24 18.1 °C 15 °C 1008.5 hPa Calm     81.8% 0.0 mm 297 W/m2
15:29 18.1 °C 15.1 °C 1008.5 hPa NNE 0.4 km/h 7.9 km/h 82.7% 0.0 mm 239 W/m2
15:34 17.4 °C 14.8 °C 1008.5 hPa NNW 1.2 km/h 7.9 km/h 84.4% 0.0 mm 263 W/m2
15:39 16.9 °C 14.4 °C 1008.5 hPa Calm   4 km/h 85.5% 0.0 mm 161 W/m2
15:44 16.9 °C 14.5 °C 1008.5 hPa Calm     85.8% 0.0 mm 247 W/m2
15:49 16.8 °C 14.4 °C 1008.5 hPa Calm     85.9% 0.0 mm 73 W/m2
15:54 16.6 °C 14.4 °C 1008.8 hPa Calm   4 km/h 86.9% 0.0 mm 71 W/m2
15:59 16.2 °C 14.2 °C 1008.8 hPa Calm     88% 0.0 mm 75 W/m2
16:04 16.2 °C 14.2 °C 1008.8 hPa Calm     88% 0.0 mm 75 W/m2
16:09 16.3 °C 14.3 °C 1008.5 hPa Calm     88% 0.0 mm 68 W/m2
16:14 16.3 °C 14.3 °C 1008.8 hPa Calm     88.2% 0.0 mm 60 W/m2
16:19 16.2 °C 14.4 °C 1008.8 hPa Calm   4 km/h 89% 0.0 mm 29 W/m2
16:24 16.2 °C 14.5 °C 1008.8 hPa Calm   4 km/h 89.6% 0.0 mm 21 W/m2
16:29 16.1 °C 14.5 °C 1008.8 hPa Calm     90% 0.0 mm 18 W/m2
16:34 15.9 °C 14.3 °C 1008.8 hPa Calm     90.4% 0.0 mm 12 W/m2
16:39 15.6 °C 14.3 °C 1008.8 hPa Calm     91.8% 0.0 mm 6 W/m2
16:44 15.6 °C 15 °C 1008.8 hPa Calm     96.7% 1.8 mm 3 W/m2
16:49 15.5 °C 15.3 °C 1008.8 hPa Calm     99% 3.6 mm 0 W/m2
16:54 14.9 °C 14.7 °C 1008.8 hPa Calm     99% 5.3 mm 0 W/m2
16:59 14.2 °C 14 °C 1009.1 hPa Calm     99% 1.8 mm 0 W/m2
17:04 14.2 °C 13.9 °C 1009.1 hPa SSW 0.9 km/h 7.9 km/h 99% 3.6 mm 0 W/m2
17:09 14.1 °C 13.8 °C 1009.1 hPa South 10.2 km/h 24.1 km/h 99% 3.6 mm 0 W/m2
17:14 13.9 °C 13.7 °C 1009.1 hPa South 8 km/h 20.1 km/h 99% 1.8 mm 0 W/m2
17:19 13.7 °C 13.5 °C 1009.1 hPa South 2.8 km/h 16.3 km/h 99% 1.8 mm 0 W/m2
17:24 13.6 °C 13.4 °C 1009.1 hPa South 1.2 km/h 7.9 km/h 99% 1.8 mm 0 W/m2
17:29 13.5 °C 13.3 °C 1008.8 hPa NE 0.5 km/h 7.9 km/h 99% 1.8 mm 0 W/m2
17:34 13.4 °C 13.2 °C 1008.8 hPa Calm   7.9 km/h 99% 1.8 mm 0 W/m2
17:39 13.1 °C 12.9 °C 1008.8 hPa Calm     99% 1.8 mm 0 W/m2
17:44 13.1 °C 12.9 °C 1009.1 hPa WNW 0.2 km/h 4 km/h 99% 1.8 mm 0 W/m2
17:49 13 °C 12.8 °C 1009.1 hPa NNW 7.2 km/h 20.1 km/h 99% 1.8 mm 0 W/m2
17:54 12.9 °C 12.7 °C 1009.1 hPa North 4 km/h 16.3 km/h 99% 0.0 mm 0 W/m2
17:59 12.8 °C 12.6 °C 1009.1 hPa NNW 5.9 km/h 12.2 km/h 99% 0.0 mm 0 W/m2
18:04 12.8 °C 12.6 °C 1009.5 hPa NNW 2.1 km/h 12.2 km/h 99% 0.0 mm 0 W/m2
18:09 12.7 °C 12.5 °C 1009.5 hPa Calm   7.9 km/h 99% 0.0 mm 0 W/m2
18:14 12.6 °C 12.4 °C 1009.8 hPa Calm     99% 0.0 mm 0 W/m2
18:19 12.4 °C 12.2 °C 1009.5 hPa Calm   4 km/h 99% 0.0 mm 0 W/m2
18:24 12.3 °C 12.1 °C 1009.5 hPa Calm   4 km/h 99% 0.0 mm 0 W/m2
18:29 12.3 °C 12.1 °C 1009.8 hPa Calm   4 km/h 99% 0.0 mm 0 W/m2
18:34 12.3 °C 12.1 °C 1009.8 hPa Calm     99% 0.0 mm 0 W/m2
18:39 12 °C 11.8 °C 1009.8 hPa West 0.4 km/h 7.9 km/h 99% 0.0 mm 0 W/m2
18:44 12 °C 11.8 °C 1009.8 hPa Calm     99% 0.0 mm 0 W/m2
18:49 12 °C 11.8 °C 1009.8 hPa Calm     99% 0.0 mm 0 W/m2
18:54 11.9 °C 11.7 °C 1010.2 hPa West 0.2 km/h 4 km/h 99% 0.0 mm 0 W/m2
18:59 11.7 °C 11.5 °C 1010.5 hPa Calm     99% 0.0 mm 0 W/m2
19:04 11.7 °C 11.5 °C 1010.5 hPa Calm     99% 0.0 mm 0 W/m2
19:09 11.7 °C 11.5 °C 1010.5 hPa Calm     99% 0.0 mm 0 W/m2
19:14 11.8 °C 11.7 °C 1010.5 hPa Calm     99% 0.0 mm 0 W/m2
19:19 12.2 °C 12 °C 1010.8 hPa Calm     99% 0.0 mm 0 W/m2
19:24 12.2 °C 12 °C 1010.5 hPa Calm     99% 0.0 mm 0 W/m2
19:29 12.2 °C 12 °C 1010.5 hPa Calm     99% 0.0 mm 0 W/m2
19:34 12.3 °C 12.2 °C 1010.5 hPa Calm     99% 0.0 mm 0 W/m2
19:39 12.6 °C 12.4 °C 1010.5 hPa Calm   4 km/h 99% 0.0 mm 0 W/m2
19:44 12.6 °C 12.4 °C 1010.5 hPa Calm     99% 0.0 mm 0 W/m2
19:49 12.5 °C 12.3 °C 1010.5 hPa Calm     99% 0.0 mm 0 W/m2
19:54 12.4 °C 12.2 °C 1010.5 hPa Calm     99% 0.0 mm 0 W/m2
19:59 12.3 °C 12.1 °C 1010.5 hPa Calm     99% 0.0 mm 0 W/m2
20:04 12.3 °C 12.1 °C 1010.5 hPa Calm     99% 0.0 mm 0 W/m2
20:09 12.3 °C 12.1 °C 1010.2 hPa Calm     99% 0.0 mm 0 W/m2
20:14 12.3 °C 12.1 °C 1010.2 hPa Calm     99% 0.0 mm 0 W/m2
20:19 13 °C 12.8 °C 1010.2 hPa Calm     99% 0.0 mm 0 W/m2
20:24 13 °C 12.8 °C 1010.2 hPa Calm   4 km/h 99% 0.0 mm 0 W/m2
20:29 13 °C 12.8 °C 1010.5 hPa Calm     99% 0.0 mm 0 W/m2
20:34 13 °C 12.8 °C 1010.5 hPa Calm     99% 0.0 mm 0 W/m2
20:39 12.8 °C 12.5 °C 1010.5 hPa Calm     98.3% 0.0 mm 0 W/m2
20:44 12.8 °C 12.6 °C 1010.5 hPa Calm     98.3% 0.0 mm 0 W/m2
20:49 13 °C 12.6 °C 1010.5 hPa Calm     97.4% 0.0 mm 0 W/m2
20:54 13.1 °C 12.8 °C 1010.5 hPa Calm     98.6% 0.0 mm 0 W/m2
20:59 13.2 °C 13 °C 1010.8 hPa Calm     99% 0.0 mm 0 W/m2
21:04 13.2 °C 13 °C 1010.5 hPa Calm     99% 0.0 mm 0 W/m2
21:09 13.2 °C 13 °C 1010.8 hPa Calm     99% 0.0 mm 0 W/m2
21:14 13.1 °C 12.9 °C 1010.5 hPa Calm     99% 0.0 mm 0 W/m2
21:19 13 °C 12.8 °C 1010.5 hPa Calm     99% 0.0 mm 0 W/m2
21:24 13.1 °C 12.8 °C 1010.8 hPa Calm     98.8% 0.0 mm 0 W/m2
21:29 13.1 °C 12.8 °C 1010.8 hPa Calm     98% 0.0 mm 0 W/m2
21:34 13.1 °C 12.8 °C 1010.8 hPa Calm     98.4% 0.0 mm 0 W/m2
21:39 13.5 °C 13.1 °C 1010.8 hPa Calm     98% 0.0 mm 0 W/m2
21:44 13.4 °C 13 °C 1010.8 hPa SSW 0.2 km/h 4 km/h 97.6% 0.0 mm 0 W/m2
21:49 13.3 °C 12.8 °C 1010.8 hPa SSW 0.3 km/h 7.9 km/h 97.1% 0.0 mm 0 W/m2
21:54 13.2 °C 12.9 °C 1010.8 hPa WSW 0.2 km/h 4 km/h 98.3% 0.0 mm 0 W/m2
21:59 12.4 °C 12.2 °C 1011.2 hPa Calm     99% 0.0 mm 0 W/m2
22:04 12.3 °C 12.1 °C 1011.2 hPa Calm     99% 0.0 mm 0 W/m2
22:09 12.4 °C 12 °C 1010.8 hPa Calm     97.7% 0.0 mm 0 W/m2
22:14 12.4 °C 11.9 °C 1010.8 hPa Calm     96.8% 0.0 mm 0 W/m2
22:19 12.5 °C 12.1 °C 1010.8 hPa Calm     97.7% 0.0 mm 0 W/m2
22:24 12.4 °C 12.1 °C 1011.2 hPa Calm     97.9% 0.0 mm 0 W/m2
22:29 12.4 °C 11.9 °C 1010.8 hPa Calm     97% 0.0 mm 0 W/m2
22:34 12.4 °C 11.1 °C 1010.8 hPa Calm     91.8% 0.0 mm 0 W/m2
22:39 12.3 °C 10.7 °C 1010.8 hPa West 0.3 km/h 4 km/h 90.6% 0.0 mm 0 W/m2
22:44 12.2 °C 11.2 °C 1010.8 hPa Calm   4 km/h 93.7% 0.0 mm 0 W/m2
22:49 12.2 °C 11.8 °C 1011.2 hPa Calm     97.9% 0.0 mm 0 W/m2
22:54 12 °C 11.7 °C 1011.2 hPa WSW 1.1 km/h 7.9 km/h 98.2% 0.0 mm 0 W/m2
22:59 11.5 °C 10.9 °C 1011.2 hPa Calm   7.9 km/h 95.9% 0.0 mm 0 W/m2
23:04 11.4 °C 10.3 °C 1011.2 hPa Calm     93% 0.0 mm 0 W/m2
23:09 11.5 °C 10.7 °C 1011.2 hPa Calm     94.6% 0.0 mm 0 W/m2
23:14 11.5 °C 10.5 °C 1010.8 hPa Calm     93.7% 0.0 mm 0 W/m2
23:19 11.8 °C 10.7 °C 1011.2 hPa Calm     93.2% 0.0 mm 0 W/m2
23:24 11.8 °C 11 °C 1010.8 hPa Calm     95.1% 0.0 mm 0 W/m2
23:29 11.8 °C 11 °C 1010.8 hPa Calm     94.6% 0.0 mm 0 W/m2
23:34 11.8 °C 11.4 °C 1011.2 hPa Calm     97.1% 0.0 mm 0 W/m2
23:39 11.9 °C 11.5 °C 1010.8 hPa South 0.2 km/h 7.9 km/h 97.9% 0.0 mm 0 W/m2
23:44 11.9 °C 11.5 °C 1011.2 hPa Calm     97.6% 0.0 mm 0 W/m2
23:49 11.9 °C 11.5 °C 1010.8 hPa Calm     97.1% 0.0 mm 0 W/m2
23:54 11.9 °C 11.2 °C 1010.8 hPa Calm     95.3% 0.0 mm 0 W/m2
23:59 12.1 °C 11.4 °C 1011.2 hPa Calm     95.6% 0.0 mm 0 W/m2
Juneau County Weather
Compliments of Weather Underground - 2 mb